createdAt,value
2022-12-04T00:00:24.907Z,61.13
2022-12-04T00:03:53.125Z,60.54
2022-12-04T00:06:59.191Z,60.35
2022-12-04T00:10:05.896Z,60.52
2022-12-04T00:13:11.875Z,60.95
2022-12-04T00:16:18.973Z,60.93
2022-12-04T00:19:24.607Z,60.72
2022-12-04T00:22:29.908Z,60.59
2022-12-04T00:25:40.819Z,60.96
2022-12-04T00:28:46.603Z,61.38
2022-12-04T00:31:52.050Z,61.26
2022-12-04T00:34:57.631Z,61.39
2022-12-04T00:38:03.203Z,61.71
2022-12-04T00:41:09.011Z,61.41
2022-12-04T00:44:14.435Z,61.12
2022-12-04T00:47:19.928Z,61.13
2022-12-04T00:50:25.260Z,60.72
2022-12-04T00:53:30.897Z,60.67
2022-12-04T00:56:36.276Z,60.79
2022-12-04T00:59:41.600Z,60.74
2022-12-04T01:02:47.138Z,61.12
2022-12-04T01:05:52.640Z,61.25
2022-12-04T01:08:58.672Z,61.22
2022-12-04T01:12:04.124Z,60.79
2022-12-04T01:15:10.416Z,60.96
2022-12-04T01:18:15.984Z,60.83
2022-12-04T01:21:21.827Z,60.41
2022-12-04T01:24:27.097Z,60.22
2022-12-04T01:27:32.409Z,60.14
2022-12-04T01:30:37.816Z,60.32
2022-12-04T01:33:44.488Z,60.29
2022-12-04T01:36:49.738Z,60.39
2022-12-04T01:39:55.381Z,60.40
2022-12-04T01:43:02.591Z,60.68
2022-12-04T01:46:09.173Z,60.80
2022-12-04T01:49:18.747Z,60.73
2022-12-04T01:52:25.953Z,60.62
2022-12-04T01:55:32.549Z,60.52
2022-12-04T01:58:41.191Z,60.66
2022-12-04T02:01:54.386Z,61.16
2022-12-04T02:05:01.030Z,60.77
2022-12-04T02:08:06.591Z,60.90
2022-12-04T02:11:17.621Z,60.86
2022-12-04T02:14:27.255Z,60.73
2022-12-04T02:17:39.951Z,60.56
2022-12-04T02:20:50.275Z,60.34
2022-12-04T02:24:04.875Z,60.50
2022-12-04T02:31:08.561Z,60.97
2022-12-04T02:34:15.930Z,60.89
2022-12-04T02:37:25.477Z,60.70
2022-12-04T02:40:32.723Z,60.94
2022-12-04T02:43:40.532Z,61.21
2022-12-04T02:46:48.298Z,61.28
2022-12-04T02:49:56.986Z,61.34
2022-12-04T02:53:05.798Z,61.75
2022-12-04T02:56:13.097Z,61.42
2022-12-04T02:59:21.425Z,61.31
2022-12-04T03:02:30.519Z,61.30
2022-12-04T03:05:40.102Z,61.06
2022-12-04T03:08:47.672Z,60.92
2022-12-04T03:11:54.845Z,60.76
2022-12-04T03:15:03.160Z,61.02
2022-12-04T03:18:13.188Z,60.92
2022-12-04T03:21:21.182Z,60.52
2022-12-04T03:24:28.482Z,60.46
2022-12-04T03:27:36.834Z,60.24
2022-12-04T03:30:45.493Z,60.82
2022-12-04T03:33:52.350Z,61.12
2022-12-04T03:37:00.560Z,61.19
2022-12-04T03:40:09.140Z,60.77
2022-12-04T03:43:16.227Z,60.69
2022-12-04T03:46:25.757Z,60.66
2022-12-04T03:49:35.461Z,60.44
2022-12-04T03:52:44.947Z,60.42
2022-12-04T03:55:53.138Z,60.10
2022-12-04T03:59:00.455Z,59.98
2022-12-04T04:02:09.496Z,59.76
2022-12-04T04:05:15.947Z,59.64
2022-12-04T04:08:33.930Z,59.78
2022-12-04T04:11:41.781Z,59.57
2022-12-04T04:15:09.780Z,58.54
2022-12-04T04:18:33.026Z,61.27
2022-12-04T04:21:57.392Z,63.85
2022-12-04T04:25:06.148Z,63.73
2022-12-04T04:28:24.992Z,62.64
2022-12-04T04:31:35.451Z,61.67
2022-12-04T04:34:43.631Z,61.51
2022-12-04T04:37:54.913Z,60.94
2022-12-04T04:41:04.210Z,60.71
2022-12-04T04:44:13.542Z,60.49
2022-12-04T04:47:22.119Z,60.56
2022-12-04T04:50:28.865Z,60.49
2022-12-04T04:53:36.762Z,60.31
2022-12-04T04:56:42.983Z,60.35
2022-12-04T04:59:48.507Z,60.18
2022-12-04T05:02:53.824Z,60.12
2022-12-04T05:05:59.290Z,60.12
2022-12-04T05:09:05.139Z,59.78
2022-12-04T05:12:10.541Z,59.64
2022-12-04T05:15:16.355Z,59.53
2022-12-04T05:18:22.191Z,59.76
2022-12-04T05:21:27.602Z,59.77
2022-12-04T05:24:33.045Z,59.80
2022-12-04T05:27:38.376Z,59.60
2022-12-04T05:30:43.759Z,59.62
2022-12-04T05:33:49.293Z,59.75
2022-12-04T05:36:54.777Z,59.92
2022-12-04T05:40:00.251Z,59.90
2022-12-04T05:43:05.646Z,59.98
2022-12-04T05:46:11.637Z,60.11
2022-12-04T05:49:17.013Z,59.95
2022-12-04T05:52:22.548Z,59.74
2022-12-04T05:55:27.927Z,59.69
2022-12-04T05:58:35.278Z,59.54
2022-12-04T06:01:40.816Z,58.52
2022-12-04T06:04:46.361Z,60.94
2022-12-04T06:07:51.871Z,63.24
2022-12-04T06:10:58.694Z,64.95
2022-12-04T06:14:05.084Z,64.11
2022-12-04T06:17:10.511Z,63.33
2022-12-04T06:20:16.171Z,62.49
2022-12-04T06:23:21.669Z,62.07
2022-12-04T06:26:27.298Z,61.63
2022-12-04T06:29:32.956Z,61.51
2022-12-04T06:32:38.324Z,61.27
2022-12-04T06:35:43.709Z,61.07
2022-12-04T06:38:49.173Z,60.92
2022-12-04T06:41:54.681Z,60.90
2022-12-04T06:45:00.291Z,61.03
2022-12-04T06:48:05.917Z,60.92
2022-12-04T06:51:12.351Z,61.24
2022-12-04T06:54:20.763Z,61.13
2022-12-04T06:57:26.076Z,60.86
2022-12-04T07:00:31.370Z,60.60
2022-12-04T07:03:36.816Z,60.33
2022-12-04T07:06:42.749Z,60.04
2022-12-04T07:09:48.167Z,59.88
2022-12-04T07:12:53.593Z,59.92
2022-12-04T07:16:00.698Z,60.45
2022-12-04T07:19:06.083Z,60.73
2022-12-04T07:22:11.387Z,60.69
2022-12-04T07:25:16.763Z,60.58
2022-12-04T07:28:22.168Z,60.30
2022-12-04T07:31:28.285Z,60.11
2022-12-04T07:34:35.769Z,60.03
2022-12-04T07:37:42.563Z,60.46
2022-12-04T07:40:48.036Z,60.59
2022-12-04T07:43:54.640Z,60.68
2022-12-04T07:47:00.165Z,60.42
2022-12-04T07:50:06.154Z,60.09
2022-12-04T07:53:11.846Z,59.95
2022-12-04T07:56:17.678Z,59.74
2022-12-04T07:59:23.181Z,59.57
2022-12-04T08:02:28.497Z,59.65
2022-12-04T08:05:34.230Z,59.58
2022-12-04T08:08:39.746Z,59.55
2022-12-04T08:11:45.056Z,59.62
2022-12-04T08:14:51.734Z,60.11
2022-12-04T08:17:57.060Z,60.56
2022-12-04T08:21:05.584Z,60.83
2022-12-04T08:24:11.118Z,61.18
2022-12-04T08:27:16.722Z,61.35
2022-12-04T08:30:22.221Z,61.09
2022-12-04T08:33:27.471Z,61.07
2022-12-04T08:36:33.309Z,61.03
2022-12-04T08:39:38.785Z,61.24
2022-12-04T08:42:44.259Z,61.17
2022-12-04T08:45:57.417Z,61.22
2022-12-04T08:49:02.844Z,60.95
2022-12-04T08:52:08.256Z,60.59
2022-12-04T08:55:13.861Z,61.00
2022-12-04T08:58:19.915Z,61.32
2022-12-04T09:01:25.784Z,61.28
2022-12-04T09:04:31.536Z,61.15
2022-12-04T09:07:37.029Z,61.04
2022-12-04T09:10:42.825Z,61.15
2022-12-04T09:13:48.358Z,61.36
2022-12-04T09:16:54.144Z,61.12
2022-12-04T09:20:01.487Z,60.88
2022-12-04T09:23:07.348Z,60.87
2022-12-04T09:26:20.146Z,60.70
2022-12-04T09:29:26.184Z,60.57
2022-12-04T09:32:31.637Z,60.37
2022-12-04T09:35:37.223Z,60.33
2022-12-04T09:38:42.694Z,60.07
2022-12-04T09:41:56.507Z,60.31
2022-12-04T09:45:04.756Z,60.66
2022-12-04T09:48:12.050Z,60.57
2022-12-04T09:51:20.401Z,60.37
2022-12-04T09:54:28.096Z,59.91
2022-12-04T09:57:36.869Z,59.98
2022-12-04T10:00:43.467Z,60.43
2022-12-04T10:03:48.988Z,60.37
2022-12-04T10:07:01.579Z,60.21
2022-12-04T10:10:08.510Z,60.05
2022-12-04T10:13:22.353Z,59.60
2022-12-04T10:16:30.028Z,60.43
2022-12-04T10:19:38.992Z,64.07
2022-12-04T10:22:47.989Z,64.56
2022-12-04T10:25:54.550Z,62.98
2022-12-04T10:29:02.663Z,62.04
2022-12-04T10:32:16.205Z,61.45
2022-12-04T10:35:22.967Z,61.13
2022-12-04T10:38:33.532Z,60.67
2022-12-04T10:41:41.790Z,60.31
2022-12-04T10:44:47.051Z,59.93
2022-12-04T10:47:53.677Z,59.60
2022-12-04T10:50:59.198Z,59.39
2022-12-04T10:54:12.558Z,57.79
2022-12-04T10:57:18.033Z,60.77
2022-12-04T11:00:27.178Z,66.47
2022-12-04T11:03:33.010Z,65.41
2022-12-04T11:06:39.892Z,63.64
2022-12-04T11:09:45.711Z,62.33
2022-12-04T11:12:56.396Z,61.38
2022-12-04T11:16:02.362Z,61.25
2022-12-04T11:19:21.258Z,61.17
2022-12-04T11:22:26.626Z,60.85
2022-12-04T11:25:36.671Z,60.56
2022-12-04T11:28:45.940Z,60.02
2022-12-04T11:31:53.117Z,59.58
2022-12-04T11:35:00.816Z,58.32
2022-12-04T11:38:08.880Z,62.47
2022-12-04T11:41:25.083Z,64.58
2022-12-04T11:44:33.066Z,63.21
2022-12-04T11:47:38.514Z,62.01
2022-12-04T11:50:48.571Z,61.37
2022-12-04T11:53:58.564Z,61.14
2022-12-04T11:57:09.026Z,60.79
2022-12-04T12:00:16.212Z,60.46
2022-12-04T12:03:26.274Z,60.27
2022-12-04T12:06:35.967Z,59.86
2022-12-04T12:09:45.591Z,57.69
2022-12-04T12:12:57.215Z,58.73
2022-12-04T12:16:06.424Z,64.66
2022-12-04T12:19:20.214Z,64.89
2022-12-04T12:22:34.391Z,63.27
2022-12-04T12:25:51.707Z,62.63
2022-12-04T12:29:06.383Z,61.61
2022-12-04T12:32:18.210Z,60.63
2022-12-04T12:35:27.665Z,59.83
2022-12-04T12:38:36.497Z,59.28
2022-12-04T12:41:44.967Z,63.58
2022-12-04T12:44:54.726Z,64.93
2022-12-04T12:48:02.533Z,63.86
2022-12-04T12:51:29.268Z,62.67
2022-12-04T12:54:41.117Z,62.06
2022-12-04T12:57:47.954Z,61.49
2022-12-04T13:00:57.172Z,61.11
2022-12-04T13:04:04.580Z,60.79
2022-12-04T13:07:23.817Z,60.18
2022-12-04T13:10:31.962Z,60.33
2022-12-04T13:13:40.469Z,60.23
2022-12-04T13:16:46.915Z,60.22
2022-12-04T13:19:55.310Z,59.90
2022-12-04T13:23:12.027Z,60.16
2022-12-04T13:26:22.419Z,60.05
2022-12-04T13:29:36.414Z,60.22
2022-12-04T13:33:04.162Z,60.05
2022-12-04T13:36:27.223Z,59.79
2022-12-04T13:39:44.575Z,59.64
2022-12-04T13:42:49.932Z,59.58
2022-12-04T13:45:56.693Z,59.39
2022-12-04T13:49:25.180Z,57.97
2022-12-04T13:52:40.914Z,61.82
2022-12-04T13:55:56.249Z,63.94
2022-12-04T13:59:03.153Z,62.45
2022-12-04T14:02:22.588Z,61.56
2022-12-04T14:05:30.099Z,61.48
2022-12-04T14:08:40.223Z,60.74
2022-12-04T14:11:47.540Z,60.33
2022-12-04T14:14:55.564Z,60.37
2022-12-04T14:18:02.530Z,59.66
2022-12-04T14:21:07.966Z,60.66
2022-12-04T14:24:18.577Z,64.92
2022-12-04T14:27:35.342Z,65.16
2022-12-04T14:30:41.621Z,63.68
2022-12-04T14:33:49.500Z,62.90
2022-12-04T14:36:56.302Z,63.07
2022-12-04T14:40:02.822Z,62.90
2022-12-04T14:43:08.791Z,62.38
2022-12-04T14:46:20.280Z,62.01
2022-12-04T14:49:34.394Z,61.64
2022-12-04T14:52:41.904Z,61.38
2022-12-04T14:55:57.802Z,61.22
2022-12-04T14:59:07.175Z,61.94
2022-12-04T15:02:17.354Z,61.38
2022-12-04T15:05:23.797Z,61.25
2022-12-04T15:08:29.283Z,61.23
2022-12-04T15:11:52.304Z,60.74
2022-12-04T15:14:59.956Z,60.56
2022-12-04T15:18:12.169Z,60.60
2022-12-04T15:21:17.515Z,61.13
2022-12-04T15:24:24.413Z,61.47
2022-12-04T15:27:32.885Z,61.05
2022-12-04T15:30:40.478Z,61.01
2022-12-04T15:33:47.323Z,61.25
2022-12-04T15:36:56.294Z,61.36
2022-12-04T15:40:06.075Z,61.71
2022-12-04T15:43:17.288Z,61.67
2022-12-04T15:46:25.117Z,61.85
2022-12-04T15:49:31.291Z,61.71
2022-12-04T15:52:37.156Z,61.98
2022-12-04T15:55:49.005Z,61.82
2022-12-04T15:58:57.146Z,61.55
2022-12-04T16:02:21.130Z,61.66
2022-12-04T16:05:34.954Z,62.20
2022-12-04T16:08:41.340Z,62.19
2022-12-04T16:11:46.880Z,61.87
2022-12-04T16:14:54.503Z,62.66
2022-12-04T16:18:00.035Z,62.85
2022-12-04T16:21:05.379Z,62.48
2022-12-04T16:24:13.267Z,62.30
2022-12-04T16:27:20.445Z,62.52
2022-12-04T16:30:26.171Z,63.07
2022-12-04T16:33:31.460Z,63.49
2022-12-04T16:36:37.222Z,64.17
2022-12-04T16:39:42.720Z,64.28
2022-12-04T16:42:48.173Z,63.97
2022-12-04T16:45:54.808Z,63.11
2022-12-04T16:49:05.779Z,63.16
2022-12-04T16:52:12.980Z,63.46
2022-12-04T16:55:20.364Z,63.37
2022-12-04T16:58:25.907Z,63.34
2022-12-04T17:01:34.878Z,63.09
2022-12-04T17:04:40.380Z,62.61
2022-12-04T17:07:45.907Z,62.37
2022-12-04T17:10:51.302Z,61.84
2022-12-04T17:13:56.769Z,61.59
2022-12-04T17:17:02.058Z,61.27
2022-12-04T17:20:08.774Z,61.25
2022-12-04T17:23:14.284Z,60.95
2022-12-04T17:26:20.191Z,61.47
2022-12-04T17:29:25.591Z,61.68
2022-12-04T17:32:33.261Z,62.30
2022-12-04T17:35:41.475Z,62.12
2022-12-04T17:38:46.707Z,62.08
2022-12-04T17:41:52.073Z,62.25
2022-12-04T17:44:57.787Z,62.28
2022-12-04T17:48:03.584Z,62.41
2022-12-04T17:51:09.751Z,62.25
2022-12-04T17:54:15.200Z,61.97
2022-12-04T17:57:21.535Z,61.46
2022-12-04T18:00:27.037Z,60.99
2022-12-04T18:03:32.567Z,61.02
2022-12-04T18:06:38.841Z,61.19
2022-12-04T18:09:44.211Z,61.52
2022-12-04T18:12:49.583Z,61.43
2022-12-04T18:15:54.843Z,62.02
2022-12-04T18:19:01.791Z,62.46
2022-12-04T18:22:07.460Z,62.33
2022-12-04T18:25:12.751Z,62.01
2022-12-04T18:28:18.163Z,62.02
2022-12-04T18:31:23.577Z,61.60
2022-12-04T18:34:29.041Z,61.82
2022-12-04T18:37:34.383Z,62.16
2022-12-04T18:40:39.719Z,61.62
2022-12-04T18:43:45.683Z,62.03
2022-12-04T18:46:51.102Z,61.63
2022-12-04T18:49:56.776Z,61.56
2022-12-04T18:53:02.893Z,61.60
2022-12-04T18:56:08.387Z,61.28
2022-12-04T18:59:15.031Z,62.03
2022-12-04T19:02:20.644Z,62.11
2022-12-04T19:05:26.330Z,62.56
2022-12-04T19:08:34.284Z,62.46
2022-12-04T19:11:42.822Z,62.40
2022-12-04T19:14:48.236Z,62.28
2022-12-04T19:17:54.102Z,62.65
2022-12-04T19:20:59.463Z,62.61
2022-12-04T19:24:04.822Z,62.41
2022-12-04T19:27:11.692Z,62.11
2022-12-04T19:30:17.261Z,62.15
2022-12-04T19:33:22.762Z,62.35
2022-12-04T19:36:29.019Z,63.11
2022-12-04T19:39:34.309Z,62.98
2022-12-04T19:42:39.623Z,62.96
2022-12-04T19:45:49.946Z,63.66
2022-12-04T19:48:56.941Z,63.45
2022-12-04T19:52:02.343Z,62.94
2022-12-04T19:55:08.974Z,62.65
2022-12-04T19:58:14.443Z,62.55
2022-12-04T20:01:20.843Z,62.49
2022-12-04T20:04:26.661Z,62.43
2022-12-04T20:07:32.071Z,62.55
2022-12-04T20:10:37.826Z,62.93
2022-12-04T20:13:43.615Z,62.57
2022-12-04T20:16:49.045Z,62.28
2022-12-04T20:19:54.780Z,62.66
2022-12-04T20:23:00.423Z,63.11
2022-12-04T20:26:06.642Z,63.14
2022-12-04T20:29:14.000Z,63.08
2022-12-04T20:32:19.202Z,62.98
2022-12-04T20:35:24.817Z,62.74
2022-12-04T20:38:30.288Z,62.23
2022-12-04T20:41:36.207Z,62.31
2022-12-04T20:44:41.533Z,63.47
2022-12-04T20:47:46.887Z,63.59
2022-12-04T20:50:52.328Z,64.10
2022-12-04T20:53:59.198Z,64.18
2022-12-04T20:57:04.763Z,63.60
2022-12-04T21:00:11.226Z,63.67
2022-12-04T21:03:17.063Z,63.87
2022-12-04T21:06:23.370Z,63.55
2022-12-04T21:09:28.968Z,63.63
2022-12-04T21:12:52.572Z,63.23
2022-12-04T21:16:05.540Z,63.57
2022-12-04T21:19:11.971Z,63.79
2022-12-04T21:22:18.266Z,64.52
2022-12-04T21:25:25.467Z,64.75
2022-12-04T21:28:31.336Z,64.61
2022-12-04T21:31:37.444Z,63.87
2022-12-04T21:34:42.997Z,63.51
2022-12-04T21:37:48.361Z,63.10
2022-12-04T21:40:53.563Z,63.39
2022-12-04T21:43:58.983Z,63.24
2022-12-04T21:47:04.454Z,62.86
2022-12-04T21:50:10.375Z,62.53
2022-12-04T21:53:15.726Z,62.46
2022-12-04T21:56:21.451Z,62.95
2022-12-04T21:59:27.014Z,63.71
2022-12-04T22:02:32.679Z,63.76
2022-12-04T22:05:38.282Z,63.89
2022-12-04T22:08:43.780Z,64.21
2022-12-04T22:11:49.095Z,63.67
2022-12-04T22:14:54.462Z,63.94
2022-12-04T22:17:59.739Z,64.90
2022-12-04T22:21:06.709Z,64.97
2022-12-04T22:24:12.064Z,64.17
2022-12-04T22:27:17.548Z,63.83
2022-12-04T22:30:22.962Z,64.35
2022-12-04T22:33:28.268Z,64.84
2022-12-04T22:36:33.938Z,64.64
2022-12-04T22:39:39.176Z,64.10
2022-12-04T22:42:44.519Z,64.06
2022-12-04T22:45:49.890Z,63.93
2022-12-04T22:48:55.319Z,63.81
2022-12-04T22:52:00.790Z,64.05
2022-12-04T22:55:06.351Z,64.72
2022-12-04T22:58:11.788Z,64.84
2022-12-04T23:01:18.307Z,64.35
2022-12-04T23:04:23.776Z,64.16
2022-12-04T23:07:29.299Z,65.66
2022-12-04T23:10:37.121Z,65.32
2022-12-04T23:13:42.747Z,65.35
2022-12-04T23:16:48.320Z,65.34
2022-12-04T23:19:53.853Z,65.38
2022-12-04T23:22:59.779Z,65.62
2022-12-04T23:26:05.501Z,65.43
2022-12-04T23:29:29.531Z,64.80
2022-12-04T23:32:35.457Z,64.92
2022-12-04T23:35:40.624Z,65.31
2022-12-04T23:38:46.140Z,65.15
2022-12-04T23:41:51.619Z,64.61
2022-12-04T23:44:57.002Z,64.61
2022-12-04T23:48:02.495Z,64.52
2022-12-04T23:51:08.353Z,64.75
2022-12-04T23:54:13.652Z,64.55
2022-12-04T23:57:18.950Z,64.12
